sensor_id;sensor_type;location;lat;lon;timestamp;pressure;altitude;pressure_sealevel;temperature;humidity
59789;BME280;47353;51.614;5.530;2023-02-18T00:01:49;102168.34;;;10.43;100.00
59789;BME280;47353;51.614;5.530;2023-02-18T00:04:14;102167.00;;;10.46;100.00
59789;BME280;47353;51.614;5.530;2023-02-18T00:06:40;102160.66;;;10.45;100.00
59789;BME280;47353;51.614;5.530;2023-02-18T00:09:05;102156.19;;;10.44;100.00
59789;BME280;47353;51.614;5.530;2023-02-18T00:11:34;102164.72;;;10.43;100.00
59789;BME280;47353;51.614;5.530;2023-02-18T00:14:02;102166.69;;;10.42;100.00
59789;BME280;47353;51.614;5.530;2023-02-18T00:16:29;102152.13;;;10.35;100.00
59789;BME280;47353;51.614;5.530;2023-02-18T00:19:00;102149.56;;;10.45;100.00
59789;BME280;47353;51.614;5.530;2023-02-18T00:21:26;102162.31;;;10.46;100.00
59789;BME280;47353;51.614;5.530;2023-02-18T00:23:53;102157.28;;;10.43;100.00
59789;BME280;47353;51.614;5.530;2023-02-18T00:26:18;102162.56;;;10.45;100.00
59789;BME280;47353;51.614;5.530;2023-02-18T00:28:45;102148.13;;;10.43;100.00
59789;BME280;47353;51.614;5.530;2023-02-18T00:31:15;102148.38;;;10.41;100.00
59789;BME280;47353;51.614;5.530;2023-02-18T00:33:41;102143.69;;;10.42;100.00
59789;BME280;47353;51.614;5.530;2023-02-18T00:36:14;102147.38;;;10.47;100.00
59789;BME280;47353;51.614;5.530;2023-02-18T00:38:46;102135.13;;;10.43;100.00
59789;BME280;47353;51.614;5.530;2023-02-18T00:41:13;102141.41;;;10.39;100.00
59789;BME280;47353;51.614;5.530;2023-02-18T00:43:38;102138.75;;;10.44;100.00
59789;BME280;47353;51.614;5.530;2023-02-18T00:46:04;102130.19;;;10.45;100.00
59789;BME280;47353;51.614;5.530;2023-02-18T00:48:30;102135.75;;;10.45;100.00
59789;BME280;47353;51.614;5.530;2023-02-18T00:50:56;102121.41;;;10.48;100.00
59789;BME280;47353;51.614;5.530;2023-02-18T00:53:21;102111.88;;;10.44;100.00
59789;BME280;47353;51.614;5.530;2023-02-18T00:55:47;102114.66;;;10.44;100.00
59789;BME280;47353;51.614;5.530;2023-02-18T00:58:13;102123.56;;;10.46;100.00
59789;BME280;47353;51.614;5.530;2023-02-18T01:00:38;102120.44;;;10.43;100.00
59789;BME280;47353;51.614;5.530;2023-02-18T01:03:05;102112.75;;;10.45;100.00
59789;BME280;47353;51.614;5.530;2023-02-18T01:05:34;102112.75;;;10.45;100.00
59789;BME280;47353;51.614;5.530;2023-02-18T01:08:00;102114.41;;;10.46;100.00
59789;BME280;47353;51.614;5.530;2023-02-18T01:10:25;102107.22;;;10.45;100.00
59789;BME280;47353;51.614;5.530;2023-02-18T01:12:51;102102.16;;;10.42;100.00
59789;BME280;47353;51.614;5.530;2023-02-18T01:15:17;102083.16;;;10.45;100.00
59789;BME280;47353;51.614;5.530;2023-02-18T01:17:42;102091.09;;;10.42;100.00
59789;BME280;47353;51.614;5.530;2023-02-18T01:20:09;102086.97;;;10.44;100.00
59789;BME280;47353;51.614;5.530;2023-02-18T01:22:35;102085.31;;;10.43;100.00
59789;BME280;47353;51.614;5.530;2023-02-18T01:25:01;102092.38;;;10.51;100.00
59789;BME280;47353;51.614;5.530;2023-02-18T01:27:27;102079.03;;;10.48;100.00
59789;BME280;47353;51.614;5.530;2023-02-18T01:29:53;102081.19;;;10.46;100.00
59789;BME280;47353;51.614;5.530;2023-02-18T01:32:18;102077.59;;;10.45;100.00
59789;BME280;47353;51.614;5.530;2023-02-18T01:34:44;102078.47;;;10.34;100.00
59789;BME280;47353;51.614;5.530;2023-02-18T01:37:10;102098.47;;;10.36;100.00
59789;BME280;47353;51.614;5.530;2023-02-18T01:39:35;102086.44;;;10.31;100.00
59789;BME280;47353;51.614;5.530;2023-02-18T01:42:01;102090.41;;;10.23;100.00
59789;BME280;47353;51.614;5.530;2023-02-18T01:44:27;102084.41;;;10.26;100.00
59789;BME280;47353;51.614;5.530;2023-02-18T01:46:52;102095.25;;;10.16;100.00
59789;BME280;47353;51.614;5.530;2023-02-18T01:49:21;102089.97;;;10.15;100.00
59789;BME280;47353;51.614;5.530;2023-02-18T01:51:55;102094.91;;;10.13;100.00
59789;BME280;47353;51.614;5.530;2023-02-18T01:54:42;102082.91;;;10.07;100.00
59789;BME280;47353;51.614;5.530;2023-02-18T01:57:11;102086.81;;;9.99;100.00
59789;BME280;47353;51.614;5.530;2023-02-18T01:59:39;102078.44;;;9.94;100.00
59789;BME280;47353;51.614;5.530;2023-02-18T02:02:10;102079.50;;;9.93;100.00
59789;BME280;47353;51.614;5.530;2023-02-18T02:04:36;102072.41;;;9.86;100.00
59789;BME280;47353;51.614;5.530;2023-02-18T02:07:02;102071.56;;;9.85;100.00
59789;BME280;47353;51.614;5.530;2023-02-18T02:09:29;102075.66;;;9.83;100.00
59789;BME280;47353;51.614;5.530;2023-02-18T02:12:06;102072.41;;;9.86;100.00
59789;BME280;47353;51.614;5.530;2023-02-18T02:23:23;102050.28;;;9.86;100.00
59789;BME280;47353;51.614;5.530;2023-02-18T02:34:23;102034.78;;;9.73;100.00
59789;BME280;47353;51.614;5.530;2023-02-18T02:37:08;102044.56;;;9.76;100.00
59789;BME280;47353;51.614;5.530;2023-02-18T02:48:51;102012.84;;;9.67;100.00
59789;BME280;47353;51.614;5.530;2023-02-18T02:51:45;102027.13;;;9.75;100.00
59789;BME280;47353;51.614;5.530;2023-02-18T02:54:18;102012.09;;;9.71;100.00
59789;BME280;47353;51.614;5.530;2023-02-18T02:56:43;102008.97;;;9.68;100.00
59789;BME280;47353;51.614;5.530;2023-02-18T02:59:21;101993.25;;;9.68;100.00
59789;BME280;47353;51.614;5.530;2023-02-18T03:13:17;101956.22;;;9.58;100.00
59789;BME280;47353;51.614;5.530;2023-02-18T03:15:58;101960.56;;;9.54;100.00
59789;BME280;47353;51.614;5.530;2023-02-18T03:18:34;101948.09;;;9.51;100.00
59789;BME280;47353;51.614;5.530;2023-02-18T03:21:15;101940.13;;;9.55;100.00
59789;BME280;47353;51.614;5.530;2023-02-18T03:23:55;101950.00;;;9.51;100.00
59789;BME280;47353;51.614;5.530;2023-02-18T03:26:23;101921.25;;;9.52;100.00
59789;BME280;47353;51.614;5.530;2023-02-18T03:28:53;101913.94;;;9.46;100.00
59789;BME280;47353;51.614;5.530;2023-02-18T03:31:22;101919.84;;;9.49;100.00
59789;BME280;47353;51.614;5.530;2023-02-18T03:34:21;101912.47;;;9.55;100.00
59789;BME280;47353;51.614;5.530;2023-02-18T03:36:49;101899.06;;;9.47;100.00
59789;BME280;47353;51.614;5.530;2023-02-18T03:39:16;101895.94;;;9.43;100.00
59789;BME280;47353;51.614;5.530;2023-02-18T03:41:43;101907.59;;;9.45;100.00
59789;BME280;47353;51.614;5.530;2023-02-18T03:44:09;101905.06;;;9.44;100.00
59789;BME280;47353;51.614;5.530;2023-02-18T03:46:37;101900.88;;;9.41;100.00
59789;BME280;47353;51.614;5.530;2023-02-18T03:49:03;101888.72;;;9.42;100.00
59789;BME280;47353;51.614;5.530;2023-02-18T03:51:29;101896.31;;;9.47;100.00
59789;BME280;47353;51.614;5.530;2023-02-18T03:53:55;101903.13;;;9.44;100.00
59789;BME280;47353;51.614;5.530;2023-02-18T03:56:20;101895.34;;;9.41;100.00
59789;BME280;47353;51.614;5.530;2023-02-18T03:58:46;101855.22;;;9.39;100.00
59789;BME280;47353;51.614;5.530;2023-02-18T04:01:12;101884.88;;;9.43;100.00
59789;BME280;47353;51.614;5.530;2023-02-18T04:03:38;101879.38;;;9.43;100.00
59789;BME280;47353;51.614;5.530;2023-02-18T04:06:03;101886.56;;;9.44;100.00
59789;BME280;47353;51.614;5.530;2023-02-18T04:08:29;101892.56;;;9.41;100.00
59789;BME280;47353;51.614;5.530;2023-02-18T04:10:54;101878.16;;;9.39;100.00
59789;BME280;47353;51.614;5.530;2023-02-18T04:13:19;101868.56;;;9.42;100.00
59789;BME280;47353;51.614;5.530;2023-02-18T04:15:48;101864.09;;;9.41;100.00
59789;BME280;47353;51.614;5.530;2023-02-18T04:18:13;101865.91;;;9.35;100.00
59789;BME280;47353;51.614;5.530;2023-02-18T04:20:39;101862.44;;;9.40;100.00
59789;BME280;47353;51.614;5.530;2023-02-18T04:23:04;101852.22;;;9.40;100.00
59789;BME280;47353;51.614;5.530;2023-02-18T04:25:30;101847.19;;;9.37;100.00
59789;BME280;47353;51.614;5.530;2023-02-18T04:27:56;101849.72;;;9.39;100.00
59789;BME280;47353;51.614;5.530;2023-02-18T04:30:22;101849.94;;;9.37;100.00
59789;BME280;47353;51.614;5.530;2023-02-18T04:32:47;101851.88;;;9.37;100.00
59789;BME280;47353;51.614;5.530;2023-02-18T04:35:13;101852.97;;;9.36;100.00
59789;BME280;47353;51.614;5.530;2023-02-18T04:37:38;101871.44;;;9.35;100.00
59789;BME280;47353;51.614;5.530;2023-02-18T04:40:04;101833.63;;;9.24;100.00
59789;BME280;47353;51.614;5.530;2023-02-18T04:42:29;101848.50;;;9.35;100.00
59789;BME280;47353;51.614;5.530;2023-02-18T04:44:55;101860.41;;;9.35;100.00
59789;BME280;47353;51.614;5.530;2023-02-18T04:47:20;101851.00;;;9.36;100.00
59789;BME280;47353;51.614;5.530;2023-02-18T04:49:46;101866.06;;;9.29;100.00
59789;BME280;47353;51.614;5.530;2023-02-18T04:52:11;101858.97;;;9.33;100.00
59789;BME280;47353;51.614;5.530;2023-02-18T04:54:37;101857.88;;;9.34;100.00
59789;BME280;47353;51.614;5.530;2023-02-18T04:57:02;101842.78;;;9.25;100.00
59789;BME280;47353;51.614;5.530;2023-02-18T04:59:28;101833.75;;;9.29;100.00
59789;BME280;47353;51.614;5.530;2023-02-18T05:01:53;101848.97;;;9.32;100.00
59789;BME280;47353;51.614;5.530;2023-02-18T05:04:18;101830.50;;;9.32;100.00
59789;BME280;47353;51.614;5.530;2023-02-18T05:06:44;101828.81;;;9.31;100.00
59789;BME280;47353;51.614;5.530;2023-02-18T05:09:10;101837.13;;;9.31;100.00
59789;BME280;47353;51.614;5.530;2023-02-18T05:11:36;101856.47;;;9.31;100.00
59789;BME280;47353;51.614;5.530;2023-02-18T05:14:02;101827.13;;;9.30;100.00
59789;BME280;47353;51.614;5.530;2023-02-18T05:16:27;101828.97;;;9.25;100.00
59789;BME280;47353;51.614;5.530;2023-02-18T05:18:53;101813.13;;;9.20;100.00
59789;BME280;47353;51.614;5.530;2023-02-18T05:21:18;101831.47;;;9.26;100.00
59789;BME280;47353;51.614;5.530;2023-02-18T05:23:44;101820.66;;;9.25;100.00
59789;BME280;47353;51.614;5.530;2023-02-18T05:26:09;101815.38;;;9.23;100.00
59789;BME280;47353;51.614;5.530;2023-02-18T05:28:34;101810.47;;;9.25;100.00
59789;BME280;47353;51.614;5.530;2023-02-18T05:31:00;101813.44;;;9.24;100.00
59789;BME280;47353;51.614;5.530;2023-02-18T05:33:25;101821.53;;;9.25;100.00
59789;BME280;47353;51.614;5.530;2023-02-18T05:35:50;101812.88;;;9.22;100.00
59789;BME280;47353;51.614;5.530;2023-02-18T05:38:16;101818.41;;;9.22;100.00
59789;BME280;47353;51.614;5.530;2023-02-18T05:40:41;101816.69;;;9.21;100.00
59789;BME280;47353;51.614;5.530;2023-02-18T05:43:07;101831.97;;;9.23;100.00
59789;BME280;47353;51.614;5.530;2023-02-18T05:45:32;101801.81;;;9.22;100.00
59789;BME280;47353;51.614;5.530;2023-02-18T05:47:57;101819.72;;;9.19;100.00
59789;BME280;47353;51.614;5.530;2023-02-18T05:50:23;101809.00;;;9.23;100.00
59789;BME280;47353;51.614;5.530;2023-02-18T05:52:49;101794.84;;;9.19;100.00
59789;BME280;47353;51.614;5.530;2023-02-18T05:55:14;101803.97;;;9.20;100.00
59789;BME280;47353;51.614;5.530;2023-02-18T05:57:40;101789.56;;;9.18;100.00
59789;BME280;47353;51.614;5.530;2023-02-18T06:00:06;101789.56;;;9.18;100.00
59789;BME280;47353;51.614;5.530;2023-02-18T06:02:34;101794.03;;;9.19;100.00
59789;BME280;47353;51.614;5.530;2023-02-18T06:04:59;101794.75;;;9.14;100.00
59789;BME280;47353;51.614;5.530;2023-02-18T06:07:24;101787.06;;;9.16;100.00
59789;BME280;47353;51.614;5.530;2023-02-18T06:09:50;101770.47;;;9.16;100.00
59789;BME280;47353;51.614;5.530;2023-02-18T06:12:15;101786.22;;;9.16;100.00
59789;BME280;47353;51.614;5.530;2023-02-18T06:14:41;101789.50;;;9.13;100.00
59789;BME280;47353;51.614;5.530;2023-02-18T06:17:08;101787.53;;;9.13;100.00
59789;BME280;47353;51.614;5.530;2023-02-18T06:19:34;101780.72;;;9.16;100.00
59789;BME280;47353;51.614;5.530;2023-02-18T06:21:59;101780.97;;;9.14;100.00
59789;BME280;47353;51.614;5.530;2023-02-18T06:24:25;101748.63;;;9.15;100.00
59789;BME280;47353;51.614;5.530;2023-02-18T06:26:50;101762.69;;;9.13;100.00
59789;BME280;47353;51.614;5.530;2023-02-18T06:29:15;101777.09;;;9.15;100.00
59789;BME280;47353;51.614;5.530;2023-02-18T06:31:41;101787.78;;;9.12;100.00
59789;BME280;47353;51.614;5.530;2023-02-18T06:34:06;101775.44;;;9.14;100.00
59789;BME280;47353;51.614;5.530;2023-02-18T06:36:31;101777.34;;;9.14;100.00
59789;BME280;47353;51.614;5.530;2023-02-18T06:38:57;101792.13;;;9.08;100.00
59789;BME280;47353;51.614;5.530;2023-02-18T06:41:23;101767.88;;;9.10;100.00
59789;BME280;47353;51.614;5.530;2023-02-18T06:43:49;101757.41;;;9.12;100.00
59789;BME280;47353;51.614;5.530;2023-02-18T06:46:15;101762.19;;;9.16;100.00
59789;BME280;47353;51.614;5.530;2023-02-18T06:48:40;101788.53;;;9.07;100.00
59789;BME280;47353;51.614;5.530;2023-02-18T06:51:05;101790.31;;;9.13;100.00
59789;BME280;47353;51.614;5.530;2023-02-18T06:53:31;101761.41;;;9.04;100.00
59789;BME280;47353;51.614;5.530;2023-02-18T06:55:56;101766.19;;;9.09;100.00
59789;BME280;47353;51.614;5.530;2023-02-18T06:58:22;101773.66;;;9.08;100.00
59789;BME280;47353;51.614;5.530;2023-02-18T07:00:47;101775.81;;;9.06;100.00
59789;BME280;47353;51.614;5.530;2023-02-18T07:03:13;101775.81;;;9.06;100.00
59789;BME280;47353;51.614;5.530;2023-02-18T07:05:39;101788.16;;;9.04;100.00
59789;BME280;47353;51.614;5.530;2023-02-18T07:08:05;101785.31;;;8.99;100.00
59789;BME280;47353;51.614;5.530;2023-02-18T07:10:30;101804.16;;;9.02;100.00
59789;BME280;47353;51.614;5.530;2023-02-18T07:12:56;101796.00;;;8.95;100.00
59789;BME280;47353;51.614;5.530;2023-02-18T07:15:21;101784.84;;;8.90;100.00
59789;BME280;47353;51.614;5.530;2023-02-18T07:17:49;101786.91;;;8.83;100.00
59789;BME280;47353;51.614;5.530;2023-02-18T07:20:15;101782.69;;;8.81;100.00
59789;BME280;47353;51.614;5.530;2023-02-18T07:22:41;101778.06;;;8.70;100.00
59789;BME280;47353;51.614;5.530;2023-02-18T07:25:06;101800.72;;;8.72;100.00
59789;BME280;47353;51.614;5.530;2023-02-18T07:27:32;101818.34;;;8.71;100.00
59789;BME280;47353;51.614;5.530;2023-02-18T07:29:57;101795.91;;;8.67;100.00
59789;BME280;47353;51.614;5.530;2023-02-18T07:32:23;101795.91;;;8.67;100.00
59789;BME280;47353;51.614;5.530;2023-02-18T07:34:50;101791.59;;;8.60;100.00
59789;BME280;47353;51.614;5.530;2023-02-18T07:37:16;101806.50;;;8.59;100.00
59789;BME280;47353;51.614;5.530;2023-02-18T07:39:42;101805.41;;;8.60;100.00
59789;BME280;47353;51.614;5.530;2023-02-18T07:42:08;101810.69;;;8.50;100.00
59789;BME280;47353;51.614;5.530;2023-02-18T07:44:35;101800.97;;;8.47;100.00
59789;BME280;47353;51.614;5.530;2023-02-18T07:47:01;101798.09;;;8.54;100.00
59789;BME280;47353;51.614;5.530;2023-02-18T07:49:27;101816.56;;;8.53;100.00
59789;BME280;47353;51.614;5.530;2023-02-18T07:51:53;101818.25;;;8.54;100.00
59789;BME280;47353;51.614;5.530;2023-02-18T07:54:18;101812.59;;;8.49;100.00
59789;BME280;47353;51.614;5.530;2023-02-18T07:56:44;101817.03;;;8.50;100.00
59789;BME280;47353;51.614;5.530;2023-02-18T07:59:11;101810.09;;;8.48;100.00
59789;BME280;47353;51.614;5.530;2023-02-18T08:01:37;101821.97;;;8.48;100.00
59789;BME280;47353;51.614;5.530;2023-02-18T08:04:03;101807.81;;;8.44;100.00
59789;BME280;47353;51.614;5.530;2023-02-18T08:06:47;101828.31;;;8.48;100.00
59789;BME280;47353;51.614;5.530;2023-02-18T08:09:14;101805.06;;;8.44;100.00
59789;BME280;47353;51.614;5.530;2023-02-18T08:11:40;101807.31;;;8.48;100.00
59789;BME280;47353;51.614;5.530;2023-02-18T08:14:06;101815.13;;;8.51;100.00
59789;BME280;47353;51.614;5.530;2023-02-18T08:16:33;101809.38;;;8.52;100.00
59789;BME280;47353;51.614;5.530;2023-02-18T08:18:59;101828.06;;;8.50;100.00
59789;BME280;47353;51.614;5.530;2023-02-18T08:21:26;101821.09;;;8.59;100.00
59789;BME280;47353;51.614;5.530;2023-02-18T08:23:52;101819.69;;;8.57;100.00
59789;BME280;47353;51.614;5.530;2023-02-18T08:26:18;101824.22;;;8.63;100.00
59789;BME280;47353;51.614;5.530;2023-02-18T08:28:44;101797.97;;;8.60;100.00
59789;BME280;47353;51.614;5.530;2023-02-18T08:31:29;101803.00;;;8.63;100.00
59789;BME280;47353;51.614;5.530;2023-02-18T08:33:56;101815.84;;;8.69;100.00
59789;BME280;47353;51.614;5.530;2023-02-18T08:36:23;101811.63;;;8.78;100.00
59789;BME280;47353;51.614;5.530;2023-02-18T08:38:48;101809.00;;;8.83;100.00
59789;BME280;47353;51.614;5.530;2023-02-18T08:41:14;101805.63;;;8.81;100.00
59789;BME280;47353;51.614;5.530;2023-02-18T08:43:40;101809.22;;;8.82;100.00
59789;BME280;47353;51.614;5.530;2023-02-18T08:46:06;101833.72;;;8.78;100.00
59789;BME280;47353;51.614;5.530;2023-02-18T08:48:31;101802.88;;;8.70;100.00
59789;BME280;47353;51.614;5.530;2023-02-18T08:50:57;101820.88;;;8.72;100.00
59789;BME280;47353;51.614;5.530;2023-02-18T08:53:23;101826.03;;;8.80;100.00
59789;BME280;47353;51.614;5.530;2023-02-18T08:55:49;101829.03;;;8.79;100.00
59789;BME280;47353;51.614;5.530;2023-02-18T08:58:14;101836.84;;;8.82;100.00
59789;BME280;47353;51.614;5.530;2023-02-18T09:00:41;101823.84;;;8.82;100.00
59789;BME280;47353;51.614;5.530;2023-02-18T09:03:06;101836.34;;;8.85;100.00
59789;BME280;47353;51.614;5.530;2023-02-18T09:05:32;101828.19;;;8.78;100.00
59789;BME280;47353;51.614;5.530;2023-02-18T09:07:57;101827.25;;;8.73;100.00
59789;BME280;47353;51.614;5.530;2023-02-18T09:10:23;101836.13;;;8.63;100.00
59789;BME280;47353;51.614;5.530;2023-02-18T09:12:48;101839.59;;;8.59;100.00
59789;BME280;47353;51.614;5.530;2023-02-18T09:15:14;101829.06;;;8.56;100.00
59789;BME280;47353;51.614;5.530;2023-02-18T09:17:39;101828.19;;;8.55;100.00
59789;BME280;47353;51.614;5.530;2023-02-18T09:20:06;101821.72;;;8.50;100.00
59789;BME280;47353;51.614;5.530;2023-02-18T09:22:31;101825.22;;;8.45;100.00
59789;BME280;47353;51.614;5.530;2023-02-18T09:24:57;101822.69;;;8.43;100.00
59789;BME280;47353;51.614;5.530;2023-02-18T09:27:23;101821.59;;;8.44;100.00
59789;BME280;47353;51.614;5.530;2023-02-18T09:29:49;101823.13;;;8.40;100.00
59789;BME280;47353;51.614;5.530;2023-02-18T09:32:15;101829.50;;;8.41;100.00
59789;BME280;47353;51.614;5.530;2023-02-18T09:34:42;101816.66;;;8.35;100.00
59789;BME280;47353;51.614;5.530;2023-02-18T09:37:08;101812.59;;;8.26;100.00
59789;BME280;47353;51.614;5.530;2023-02-18T09:39:33;101830.22;;;8.36;100.00
59789;BME280;47353;51.614;5.530;2023-02-18T09:42:01;101818.50;;;8.53;100.00
59789;BME280;47353;51.614;5.530;2023-02-18T09:44:35;101849.56;;;8.60;100.00
59789;BME280;47353;51.614;5.530;2023-02-18T09:47:18;101827.97;;;8.68;100.00
59789;BME280;47353;51.614;5.530;2023-02-18T09:49:50;101827.38;;;8.66;100.00
59789;BME280;47353;51.614;5.530;2023-02-18T09:52:29;101827.34;;;8.78;100.00
59789;BME280;47353;51.614;5.530;2023-02-18T09:54:56;101844.88;;;8.83;100.00
59789;BME280;47353;51.614;5.530;2023-02-18T09:57:34;101850.84;;;8.92;100.00
59789;BME280;47353;51.614;5.530;2023-02-18T10:00:12;101830.22;;;8.94;100.00
59789;BME280;47353;51.614;5.530;2023-02-18T10:02:48;101829.22;;;9.12;100.00
59789;BME280;47353;51.614;5.530;2023-02-18T10:05:16;101850.81;;;9.15;100.00
59789;BME280;47353;51.614;5.530;2023-02-18T10:07:42;101828.25;;;9.18;100.00
59789;BME280;47353;51.614;5.530;2023-02-18T10:10:38;101838.31;;;9.24;100.00
59789;BME280;47353;51.614;5.530;2023-02-18T10:13:12;101843.94;;;9.29;100.00
59789;BME280;47353;51.614;5.530;2023-02-18T10:15:39;101818.03;;;9.30;100.00
59789;BME280;47353;51.614;5.530;2023-02-18T10:20:47;101840.06;;;9.41;100.00
59789;BME280;47353;51.614;5.530;2023-02-18T10:23:14;101855.66;;;9.47;100.00
59789;BME280;47353;51.614;5.530;2023-02-18T10:25:43;101863.22;;;9.52;100.00
59789;BME280;47353;51.614;5.530;2023-02-18T10:28:10;101882.50;;;9.47;100.00
59789;BME280;47353;51.614;5.530;2023-02-18T10:30:42;101860.22;;;9.53;100.00
59789;BME280;47353;51.614;5.530;2023-02-18T10:38:44;101868.66;;;9.47;100.00
59789;BME280;47353;51.614;5.530;2023-02-18T10:44:16;101867.22;;;9.44;100.00
59789;BME280;47353;51.614;5.530;2023-02-18T10:49:58;101877.53;;;9.49;100.00
59789;BME280;47353;51.614;5.530;2023-02-18T10:52:27;101885.50;;;9.45;100.00
59789;BME280;47353;51.614;5.530;2023-02-18T10:54:57;101876.84;;;9.42;100.00
59789;BME280;47353;51.614;5.530;2023-02-18T10:57:23;101896.56;;;9.34;100.00
59789;BME280;47353;51.614;5.530;2023-02-18T11:00:01;101878.44;;;9.15;100.00
59789;BME280;47353;51.614;5.530;2023-02-18T11:02:35;101890.22;;;9.10;100.00
59789;BME280;47353;51.614;5.530;2023-02-18T11:05:15;101896.09;;;9.02;100.00
59789;BME280;47353;51.614;5.530;2023-02-18T11:07:46;101882.53;;;9.01;100.00
59789;BME280;47353;51.614;5.530;2023-02-18T11:10:17;101895.28;;;9.02;100.00
59789;BME280;47353;51.614;5.530;2023-02-18T11:12:57;101897.06;;;8.96;100.00
59789;BME280;47353;51.614;5.530;2023-02-18T11:15:26;101892.63;;;8.95;100.00
59789;BME280;47353;51.614;5.530;2023-02-18T11:17:55;101904.88;;;8.99;100.00
59789;BME280;47353;51.614;5.530;2023-02-18T11:20:32;101899.00;;;9.07;100.00
59789;BME280;47353;51.614;5.530;2023-02-18T11:23:20;101899.84;;;9.08;100.00
59789;BME280;47353;51.614;5.530;2023-02-18T11:26:03;101886.97;;;9.13;100.00
59789;BME280;47353;51.614;5.530;2023-02-18T11:28:40;101895.50;;;9.12;100.00
59789;BME280;47353;51.614;5.530;2023-02-18T11:31:07;101902.72;;;9.13;100.00
59789;BME280;47353;51.614;5.530;2023-02-18T11:33:40;101894.44;;;9.13;100.00
59789;BME280;47353;51.614;5.530;2023-02-18T11:38:57;101882.41;;;9.19;100.00
59789;BME280;47353;51.614;5.530;2023-02-18T11:41:36;101895.38;;;9.18;100.00
59789;BME280;47353;51.614;5.530;2023-02-18T11:44:20;101898.03;;;9.13;100.00
59789;BME280;47353;51.614;5.530;2023-02-18T11:47:34;101905.25;;;9.14;100.00
59789;BME280;47353;51.614;5.530;2023-02-18T11:52:43;101886.16;;;9.13;100.00
59789;BME280;47353;51.614;5.530;2023-02-18T11:57:44;101876.66;;;9.09;100.00
59789;BME280;47353;51.614;5.530;2023-02-18T12:03:02;101878.31;;;9.21;100.00
59789;BME280;47353;51.614;5.530;2023-02-18T12:05:31;101875.44;;;9.28;100.00
59789;BME280;47353;51.614;5.530;2023-02-18T12:08:00;101867.47;;;9.43;100.00
59789;BME280;47353;51.614;5.530;2023-02-18T12:10:39;101860.22;;;9.53;100.00
59789;BME280;47353;51.614;5.530;2023-02-18T12:24:18;101851.97;;;10.26;100.00
59789;BME280;47353;51.614;5.530;2023-02-18T12:26:58;101857.59;;;10.31;100.00
59789;BME280;47353;51.614;5.530;2023-02-18T12:57:24;101863.41;;;11.01;100.00
59789;BME280;47353;51.614;5.530;2023-02-18T13:03:08;101860.81;;;10.94;100.00
59789;BME280;47353;51.614;5.530;2023-02-18T13:11:31;101870.03;;;11.00;100.00
59789;BME280;47353;51.614;5.530;2023-02-18T13:16:37;101866.31;;;11.11;100.00
59789;BME280;47353;51.614;5.530;2023-02-18T13:21:41;101882.84;;;11.22;100.00
59789;BME280;47353;51.614;5.530;2023-02-18T13:24:24;101868.31;;;11.15;100.00
59789;BME280;47353;51.614;5.530;2023-02-18T13:26:54;101869.44;;;11.14;100.00
59789;BME280;47353;51.614;5.530;2023-02-18T13:29:34;101878.50;;;11.10;100.00
59789;BME280;47353;51.614;5.530;2023-02-18T13:32:22;101856.81;;;11.23;100.00
59789;BME280;47353;51.614;5.530;2023-02-18T13:35:08;101853.78;;;11.46;100.00
59789;BME280;47353;51.614;5.530;2023-02-18T13:40:44;101862.63;;;11.65;100.00
59789;BME280;47353;51.614;5.530;2023-02-18T13:43:29;101852.03;;;11.62;100.00
59789;BME280;47353;51.614;5.530;2023-02-18T13:48:35;101852.75;;;11.52;100.00
59789;BME280;47353;51.614;5.530;2023-02-18T13:51:04;101864.34;;;11.49;100.00
59789;BME280;47353;51.614;5.530;2023-02-18T13:53:35;101855.78;;;11.51;100.00
59789;BME280;47353;51.614;5.530;2023-02-18T13:56:08;101852.94;;;11.46;100.00
59789;BME280;47353;51.614;5.530;2023-02-18T13:58:42;101868.69;;;11.40;100.00
59789;BME280;47353;51.614;5.530;2023-02-18T14:06:15;101875.25;;;11.56;100.00
59789;BME280;47353;51.614;5.530;2023-02-18T14:08:41;101866.56;;;11.69;100.00
59789;BME280;47353;51.614;5.530;2023-02-18T14:13:48;101877.31;;;11.87;100.00
59789;BME280;47353;51.614;5.530;2023-02-18T14:16:18;101872.50;;;11.77;100.00
59789;BME280;47353;51.614;5.530;2023-02-18T14:28:43;101871.13;;;11.58;100.00
59789;BME280;47353;51.614;5.530;2023-02-18T14:31:32;101875.13;;;11.67;100.00
59789;BME280;47353;51.614;5.530;2023-02-18T14:49:58;101869.72;;;11.77;99.30
59789;BME280;47353;51.614;5.530;2023-02-18T14:52:37;101866.69;;;11.79;99.21
59789;BME280;47353;51.614;5.530;2023-02-18T14:55:06;101871.72;;;11.82;98.94
59789;BME280;47353;51.614;5.530;2023-02-18T14:57:44;101867.63;;;11.90;99.42
59789;BME280;47353;51.614;5.530;2023-02-18T15:00:22;101874.66;;;11.97;97.86
59789;BME280;47353;51.614;5.530;2023-02-18T15:02:50;101870.28;;;12.01;97.23
59789;BME280;47353;51.614;5.530;2023-02-18T15:05:19;101875.78;;;12.28;95.35
59789;BME280;47353;51.614;5.530;2023-02-18T15:10:20;101863.81;;;12.22;93.38
59789;BME280;47353;51.614;5.530;2023-02-18T15:12:46;101865.53;;;12.02;94.32
59789;BME280;47353;51.614;5.530;2023-02-18T15:15:13;101868.75;;;11.89;96.82
59789;BME280;47353;51.614;5.530;2023-02-18T15:17:47;101872.50;;;11.77;97.04
59789;BME280;47353;51.614;5.530;2023-02-18T15:20:14;101869.91;;;11.71;98.05
59789;BME280;47353;51.614;5.530;2023-02-18T15:22:40;101873.22;;;11.68;98.15
59789;BME280;47353;51.614;5.530;2023-02-18T15:25:10;101868.66;;;11.62;98.19
59789;BME280;47353;51.614;5.530;2023-02-18T15:27:39;101877.63;;;11.64;97.95
59789;BME280;47353;51.614;5.530;2023-02-18T15:32:45;101871.97;;;11.59;99.30
59789;BME280;47353;51.614;5.530;2023-02-18T15:35:16;101879.69;;;11.57;99.40
59789;BME280;47353;51.614;5.530;2023-02-18T15:37:46;101868.59;;;11.57;99.45